Amarant — CQSF — position and weather

sailwx.info

Track history (hours):
 
Tides and Currents Weather Stations Pressure Air Temp Water Temp Dewpoint Dewpoint Depression Visibility Wind Speed Wind Dir Waves Ship Positions

Amarant

Last reported at 2018-Feb-23 14:06 UTC. Time now 2018-Feb-23 18:28 UTC.
Position N 51°48' E 003°21'.

Length 119 m; draft 7.5 m.

Type: Tanker. MMSI: 255623000.

Date/timePositionNaut miles runAvg speedWind from/ knotsBaromVisibWave heightAir tempDewpointWater temp
2018-Feb-23 14:06N 51°48' E 003°21'0 0.1
2018-Feb-23 14:00N 51°48' E 003°21'0 0.8
2018-Feb-23 13:28N 51°48' E 003°20'611.9
2018-Feb-23 12:59N 51°53' E 003°18'714.1
2018-Feb-23 12:30N 52°00' E 003°20'713.9
2018-Feb-23 11:59N 52°07' E 003°22'613.6
2018-Feb-23 11:30N 52°14' E 003°23'713.2
2018-Feb-23 11:01N 52°20' E 003°25'2912.1
2018-Feb-23 08:36N 52°47' E 003°43'212.1
2018-Feb-23 08:28N 52°48' E 003°45'612.0
2018-Feb-23 08:00N 52°53' E 003°51'612.0
2018-Feb-23 07:29N 52°57' E 003°58'612.3
2018-Feb-23 07:00N 53°01' E 004°06'712.9
2018-Feb-23 06:28N 53°05' E 004°14'713.6
2018-Feb-23 05:59N 53°09' E 004°23'713.5
2018-Feb-23 05:28N 53°16' E 004°27'713.8
2018-Feb-23 05:00N 53°22' E 004°31'713.5
2018-Feb-23 04:30N 53°28' E 004°36'713.8
2018-Feb-23 03:59N 53°31' E 004°48'613.3
2018-Feb-23 03:30N 53°33' E 004°57'713.3
2018-Feb-23 02:58N 53°35' E 005°09'613.0
2018-Feb-23 02:29N 53°37' E 005°19'10812.8
2018-Feb-22 18:01N 54°00' E 008°18'015.2
2018-Feb-22 18:00N 54°00' E 008°19'814.8
2018-Feb-22 17:29N 53°58' E 008°32'612.3
2018-Feb-22 17:00N 53°55' E 008°40'510.0
2018-Feb-22 16:30N 53°51' E 008°45'510.4
2018-Feb-22 16:00N 53°51' E 008°54'510.1
2018-Feb-22 15:31N 53°52' E 009°02'4 8.4
2018-Feb-22 15:00N 53°54' E 009°09'0 0.0
2018-Feb-22 14:30N 53°54' E 009°09'0 0.6
2018-Feb-22 14:00N 53°54' E 009°09'3 6.8
2018-Feb-22 13:30N 53°56' E 009°13'4 7.3
2018-Feb-22 13:00N 53°59' E 009°17'3 6.3
2018-Feb-22 12:30N 54°02' E 009°18'0 0.3
2018-Feb-22 12:00N 54°02' E 009°18'3 6.3
2018-Feb-22 11:30N 54°05' E 009°20'4 7.7
2018-Feb-22 11:00N 54°09' E 009°22'4 8.2
2018-Feb-22 10:30N 54°11' E 009°28'4 8.0
2018-Feb-22 10:01N 54°12' E 009°34'4 7.3
2018-Feb-22 09:31N 54°16' E 009°37'4 7.4
2018-Feb-22 09:00N 54°18' E 009°42'4 8.2
2018-Feb-22 08:31N 54°21' E 009°47'23 5.2
2018-Feb-22 04:08N 54°31' E 010°22'213.1
2018-Feb-22 03:58N 54°32' E 010°25'613.2
2018-Feb-22 03:31N 54°34' E 010°35'713.0
2018-Feb-22 03:00N 54°35' E 010°46'713.4
2018-Feb-22 02:30N 54°36' E 010°58'714.0
2018-Feb-22 02:00N 54°36' E 011°10'713.9
2018-Feb-22 01:30N 54°34' E 011°21'713.7
2018-Feb-22 01:00N 54°30' E 011°31'713.3
2018-Feb-22 00:30N 54°28' E 011°41'612.8
2018-Feb-22 00:00N 54°27' E 011°52'812.7
2018-Feb-21 23:23N 54°27' E 012°06'1410.3
2018-Feb-21 22:00N 54°39' E 012°19'6513.0
2018-Feb-21 17:02N 55°04' E 014°02'112.4
2018-Feb-21 16:55N 55°04' E 014°04'612.9
2018-Feb-21 16:26N 55°09' E 014°11'913.0
2018-Feb-21 15:44N 55°17' E 014°21'313.0
2018-Feb-21 15:28N 55°19' E 014°24'613.1
2018-Feb-21 14:59N 55°24' E 014°31'1112.9
2018-Feb-21 14:07N 55°31' E 014°47'613.0
2018-Feb-21 13:39N 55°34' E 014°56'312.9
2018-Feb-21 13:26N 55°35' E 015°00'612.9
2018-Feb-21 13:00N 55°38' E 015°09'613.0
2018-Feb-21 12:30N 55°42' E 015°19'713.0
2018-Feb-21 12:00N 55°45' E 015°28'612.9
2018-Feb-21 11:30N 55°48' E 015°39'713.1
2018-Feb-21 10:59N 55°51' E 015°49'613.1
2018-Feb-21 10:30N 55°54' E 015°59'713.1
2018-Feb-21 10:00N 55°58' E 016°09'713.1
2018-Feb-21 09:30N 56°01' E 016°20'713.2
2018-Feb-21 09:00N 56°04' E 016°30'713.2
2018-Feb-21 08:30N 56°08' E 016°39'612.6
2018-Feb-21 08:00N 56°13' E 016°46'713.3
2018-Feb-21 07:30N 56°19' E 016°50'713.3
2018-Feb-21 07:00N 56°26' E 016°53'20 0.4
2018-Feb-19 08:59N 56°06' E 016°49'714.5
2018-Feb-19 08:30N 56°02' E 016°38'714.6
2018-Feb-19 08:00N 55°58' E 016°28'714.5
2018-Feb-19 07:30N 55°54' E 016°17'714.5
2018-Feb-19 07:00N 55°51' E 016°05'714.6
2018-Feb-19 06:30N 55°47' E 015°54'714.6
2018-Feb-19 06:00N 55°44' E 015°42'714.8
2018-Feb-19 05:30N 55°40' E 015°31'714.8
2018-Feb-19 05:00N 55°37' E 015°19'714.8
2018-Feb-19 04:30N 55°33' E 015°08'714.7
2018-Feb-19 04:00N 55°29' E 014°57'814.6
2018-Feb-19 03:30N 55°26' E 014°45'714.3
2018-Feb-19 03:00N 55°21' E 014°35'714.6
2018-Feb-19 02:30N 55°15' E 014°28'714.7
2018-Feb-19 02:00N 55°09' E 014°20'714.8
2018-Feb-19 01:30N 55°04' E 014°11'714.5
2018-Feb-19 01:00N 55°01' E 013°60'5414.5
2018-Feb-18 21:16N 54°40' E 012°33'714.4
2018-Feb-18 20:46N 54°36' E 012°22'414.3
2018-Feb-18 20:30N 54°34' E 012°18'714.5
2018-Feb-18 20:00N 54°27' E 012°14'2813.2
2018-Feb-18 17:52N 54°30' E 011°25'514.1
2018-Feb-18 17:30N 54°33' E 011°18'713.5
2018-Feb-18 17:00N 54°35' E 011°07'714.3
2018-Feb-18 16:30N 54°34' E 010°54'714.2
2018-Feb-18 16:00N 54°34' E 010°42'714.0
2018-Feb-18 15:29N 54°32' E 010°30'24 2.2
2018-Feb-18 04:45N 54°21' E 009°54'2 6.9
2018-Feb-18 04:30N 54°22' E 009°51'4 7.6
2018-Feb-18 04:00N 54°20' E 009°45'4 7.6
2018-Feb-18 03:30N 54°18' E 009°41'4 7.4
2018-Feb-18 03:00N 54°15' E 009°37'4 7.8
2018-Feb-18 02:30N 54°12' E 009°32'4 8.3
2018-Feb-18 02:00N 54°10' E 009°26'3 5.9
2018-Feb-18 01:30N 54°09' E 009°21'3 5.2
2018-Feb-18 01:00N 54°06' E 009°20'3 7.0
2018-Feb-18 00:30N 54°03' E 009°18'3 5.6
2018-Feb-18 00:00N 54°00' E 009°18'4 8.2
2018-Feb-17 23:30N 53°57' E 009°14'4 7.5
2018-Feb-17 23:00N 53°54' E 009°09'1 1.2
2018-Feb-17 22:30N 53°54' E 009°09'0 1.0
2018-Feb-17 22:00N 53°53' E 009°08'2 3.3
2018-Feb-17 21:30N 53°53' E 009°05'3 5.6
2018-Feb-17 21:00N 53°51' E 009°01'611.2
2018-Feb-17 20:30N 53°50' E 008°52'510.6
2018-Feb-17 20:00N 53°52' E 008°44'510.4
2018-Feb-17 19:30N 53°57' E 008°39'611.7
2018-Feb-17 19:01N 53°58' E 008°29'611.6
2018-Feb-17 18:30N 53°59' E 008°20'713.9
2018-Feb-17 17:59N 53°59' E 008°07'10913.9
2018-Feb-17 10:09N 53°30' E 005°09'215.5
2018-Feb-17 10:01N 53°29' E 005°06'815.6
2018-Feb-17 09:30N 53°27' E 004°54'815.2
2018-Feb-17 08:59N 53°23' E 004°42'815.2
2018-Feb-17 08:29N 53°16' E 004°36'816.1
2018-Feb-17 08:00N 53°09' E 004°30'816.0
2018-Feb-17 07:30N 53°02' E 004°23'815.5
2018-Feb-17 07:00N 52°56' E 004°17'815.5
2018-Feb-17 06:30N 52°49' E 004°11'815.7
2018-Feb-17 06:00N 52°43' E 004°03'815.4
2018-Feb-17 05:28N 52°37' E 003°53'715.4
2018-Feb-17 05:00N 52°32' E 003°44'815.6
2018-Feb-17 04:30N 52°26' E 003°35'816.0
2018-Feb-17 04:00N 52°19' E 003°31'816.2
2018-Feb-17 03:29N 52°11' E 003°27'816.1
2018-Feb-17 03:00N 52°03' E 003°24'816.1
2018-Feb-17 02:30N 51°55' E 003°23'816.0
2018-Feb-17 02:00N 51°48' E 003°18'714.6
2018-Feb-17 01:30N 51°40' E 003°19'714.0
2018-Feb-17 01:00N 51°34' E 003°25'713.2
2018-Feb-17 00:30N 51°29' E 003°30'510.0
2018-Feb-17 00:00N 51°26' E 003°37'5 9.6
2018-Feb-16 23:30N 51°23' E 003°43'612.7
2018-Feb-16 23:00N 51°21' E 003°53'612.7
2018-Feb-16 22:30N 51°26' E 003°59'611.8
2018-Feb-16 22:00N 51°22' E 004°06'510.6
2018-Feb-16 21:30N 51°21' E 004°14'611.1
2018-Feb-16 21:00N 51°17' E 004°20'0 0.3
2018-Feb-16 20:30N 51°17' E 004°20'0 0.0
2018-Feb-16 20:01N 51°17' E 004°20'1 1.7
2018-Feb-16 19:30N 51°16' E 004°21'1 2.5
2018-Feb-16 19:00N 51°15' E 004°22'0 0.0
2018-Feb-16 18:30N 51°15' E 004°22'0 0.0
2018-Feb-16 18:00N 51°15' E 004°22'0 0.0
2018-Feb-16 17:30N 51°15' E 004°22'0 0.0
2018-Feb-16 17:00N 51°15' E 004°22'0 0.0
2018-Feb-16 16:30N 51°15' E 004°22'0 0.0
2018-Feb-16 16:00N 51°15' E 004°22'0 0.0
2018-Feb-16 15:30N 51°15' E 004°22'0 0.0
2018-Feb-16 15:00N 51°15' E 004°22'0 0.0
2018-Feb-16 14:30N 51°15' E 004°22'0 0.0
2018-Feb-16 14:00N 51°15' E 004°22'0 0.0
2018-Feb-16 13:30N 51°15' E 004°22'0 0.0
2018-Feb-16 13:00N 51°15' E 004°22'0 0.0
2018-Feb-16 12:29N 51°15' E 004°22'0 0.0
2018-Feb-16 12:00N 51°15' E 004°22'0 0.0
2018-Feb-16 11:29N 51°15' E 004°22'0 0.0
2018-Feb-16 10:59N 51°15' E 004°22'0 0.0
2018-Feb-16 10:30N 51°15' E 004°22'0 0.0
2018-Feb-16 10:00N 51°15' E 004°22'0 0.0
2018-Feb-16 09:29N 51°15' E 004°22'0 0.0
2018-Feb-16 08:56N 51°15' E 004°22'0 0.0
2018-Feb-16 08:26N 51°15' E 004°22'0 0.0
2018-Feb-16 07:59N 51°15' E 004°22'0 0.0
2018-Feb-16 07:29N 51°15' E 004°22'0 0.0
2018-Feb-16 06:59N 51°15' E 004°22'0 0.0
2018-Feb-16 06:29N 51°15' E 004°22'0 0.0
2018-Feb-16 05:59N 51°15' E 004°22'0 0.0
2018-Feb-16 05:29N 51°15' E 004°22'0 0.0
2018-Feb-16 04:59N 51°15' E 004°22'0 0.0
2018-Feb-16 04:29N 51°15' E 004°22'0 0.0
2018-Feb-16 03:56N 51°15' E 004°22'0 0.0
2018-Feb-16 03:29N 51°15' E 004°22'0 0.0
2018-Feb-16 02:59N 51°15' E 004°22'0 0.0
2018-Feb-16 02:29N 51°15' E 004°22'0 0.0
2018-Feb-16 01:59N 51°15' E 004°22'0 0.0
2018-Feb-16 01:29N 51°15' E 004°22'0 0.0
2018-Feb-16 00:59N 51°15' E 004°22'0 0.0
2018-Feb-16 00:26N 51°15' E 004°22'0 0.0
2018-Feb-15 23:59N 51°15' E 004°22'0 0.0
2018-Feb-15 23:26N 51°15' E 004°22'0 0.0
2018-Feb-15 22:59N 51°15' E 004°22'0 0.0
2018-Feb-15 22:29N 51°15' E 004°22'0 0.0
2018-Feb-15 21:59N 51°15' E 004°22'0 0.0
2018-Feb-15 21:29N 51°15' E 004°22'0 0.0
2018-Feb-15 20:59N 51°15' E 004°22'0 0.0
2018-Feb-15 20:29N 51°15' E 004°22'0 0.0
2018-Feb-15 19:59N 51°15' E 004°22'0 0.0
2018-Feb-15 19:29N 51°15' E 004°22'0 0.0
2018-Feb-15 18:59N 51°15' E 004°22'0 0.0
2018-Feb-15 18:29N 51°15' E 004°22'0 0.0
2018-Feb-15 17:59N 51°15' E 004°22'0 0.0
2018-Feb-15 17:29N 51°15' E 004°22'2 4.2
2018-Feb-15 17:01N 51°17' E 004°21'4 7.7
2018-Feb-15 16:30N 51°20' E 004°18'1 1.3
2018-Feb-15 16:00N 51°21' E 004°17'0 0.3
2018-Feb-15 15:30N 51°21' E 004°17'1 2.6
2018-Feb-15 15:00N 51°21' E 004°15'2 4.3
2018-Feb-15 14:30N 51°23' E 004°13'4 7.6
2018-Feb-15 14:01N 51°22' E 004°07'510.1
2018-Feb-15 13:31N 51°26' E 004°01'612.0
2018-Feb-15 13:01N 51°22' E 003°54'612.7
2018-Feb-15 12:31N 51°22' E 003°44'611.2
2018-Feb-15 12:00N 51°26' E 003°37'611.3
2018-Feb-15 11:29N 51°29' E 003°29'611.4
2018-Feb-15 11:00N 51°34' E 003°25'712.5
2018-Feb-15 10:27N 51°40' E 003°19'511.2
2018-Feb-15 10:00N 51°44' E 003°15'148 4.6
2018-Feb-14 01:59N 53°42' E 005°44'9212.7
2018-Feb-13 18:46N 54°00' E 008°16'912.4
2018-Feb-13 18:01N 53°58' E 008°32'013.3
2018-Feb-13 18:00N 53°58' E 008°32'714.0
2018-Feb-13 17:30N 53°54' E 008°42'714.6
2018-Feb-13 17:00N 53°51' E 008°52'815.9
2018-Feb-13 16:30N 53°53' E 009°05'713.5
2018-Feb-13 16:00N 53°52' E 009°17'815.0
2018-Feb-13 15:30N 53°46' E 009°24'714.1
2018-Feb-13 15:01N 53°40' E 009°31'713.1
2018-Feb-13 14:31N 53°35' E 009°37'  
Track history (hours):
 
Tides and Currents Weather Stations Pressure Air Temp Water Temp Dewpoint Dewpoint Depression Visibility Wind Speed Wind Dir Waves Ship Positions

Amarant

Last reported at 2018-Feb-23 14:06 UTC. Time now 2018-Feb-23 18:28 UTC.
Position N 51°48' E 003°21'.

Length 119 m; draft 7.5 m.

Type: Tanker. MMSI: 255623000.

Date/timePositionNaut miles runAvg speedWind from/ knotsBaromVisibWave heightAir tempDewpointWater temp
2018-Feb-23 14:06N 51°48' E 003°21'0 0.1
2018-Feb-23 14:00N 51°48' E 003°21'0 0.8
2018-Feb-23 13:28N 51°48' E 003°20'611.9
2018-Feb-23 12:59N 51°53' E 003°18'714.1
2018-Feb-23 12:30N 52°00' E 003°20'713.9
2018-Feb-23 11:59N 52°07' E 003°22'613.6
2018-Feb-23 11:30N 52°14' E 003°23'713.2
2018-Feb-23 11:01N 52°20' E 003°25'2912.1
2018-Feb-23 08:36N 52°47' E 003°43'212.1
2018-Feb-23 08:28N 52°48' E 003°45'612.0
2018-Feb-23 08:00N 52°53' E 003°51'612.0
2018-Feb-23 07:29N 52°57' E 003°58'612.3
2018-Feb-23 07:00N 53°01' E 004°06'712.9
2018-Feb-23 06:28N 53°05' E 004°14'713.6
2018-Feb-23 05:59N 53°09' E 004°23'713.5
2018-Feb-23 05:28N 53°16' E 004°27'713.8
2018-Feb-23 05:00N 53°22' E 004°31'713.5
2018-Feb-23 04:30N 53°28' E 004°36'713.8
2018-Feb-23 03:59N 53°31' E 004°48'613.3
2018-Feb-23 03:30N 53°33' E 004°57'713.3
2018-Feb-23 02:58N 53°35' E 005°09'613.0
2018-Feb-23 02:29N 53°37' E 005°19'10812.8
2018-Feb-22 18:01N 54°00' E 008°18'015.2
2018-Feb-22 18:00N 54°00' E 008°19'814.8
2018-Feb-22 17:29N 53°58' E 008°32'612.3
2018-Feb-22 17:00N 53°55' E 008°40'510.0
2018-Feb-22 16:30N 53°51' E 008°45'510.4
2018-Feb-22 16:00N 53°51' E 008°54'510.1
2018-Feb-22 15:31N 53°52' E 009°02'4 8.4
2018-Feb-22 15:00N 53°54' E 009°09'0 0.0
2018-Feb-22 14:30N 53°54' E 009°09'0 0.6
2018-Feb-22 14:00N 53°54' E 009°09'3 6.8
2018-Feb-22 13:30N 53°56' E 009°13'4 7.3
2018-Feb-22 13:00N 53°59' E 009°17'3 6.3
2018-Feb-22 12:30N 54°02' E 009°18'0 0.3
2018-Feb-22 12:00N 54°02' E 009°18'3 6.3
2018-Feb-22 11:30N 54°05' E 009°20'4 7.7
2018-Feb-22 11:00N 54°09' E 009°22'4 8.2
2018-Feb-22 10:30N 54°11' E 009°28'4 8.0
2018-Feb-22 10:01N 54°12' E 009°34'4 7.3
2018-Feb-22 09:31N 54°16' E 009°37'4 7.4
2018-Feb-22 09:00N 54°18' E 009°42'4 8.2
2018-Feb-22 08:31N 54°21' E 009°47'23 5.2
2018-Feb-22 04:08N 54°31' E 010°22'213.1
2018-Feb-22 03:58N 54°32' E 010°25'613.2
2018-Feb-22 03:31N 54°34' E 010°35'713.0
2018-Feb-22 03:00N 54°35' E 010°46'713.4
2018-Feb-22 02:30N 54°36' E 010°58'714.0
2018-Feb-22 02:00N 54°36' E 011°10'713.9
2018-Feb-22 01:30N 54°34' E 011°21'713.7
2018-Feb-22 01:00N 54°30' E 011°31'713.3
2018-Feb-22 00:30N 54°28' E 011°41'612.8
2018-Feb-22 00:00N 54°27' E 011°52'812.7
2018-Feb-21 23:23N 54°27' E 012°06'1410.3
2018-Feb-21 22:00N 54°39' E 012°19'6513.0
2018-Feb-21 17:02N 55°04' E 014°02'112.4
2018-Feb-21 16:55N 55°04' E 014°04'612.9
2018-Feb-21 16:26N 55°09' E 014°11'913.0
2018-Feb-21 15:44N 55°17' E 014°21'313.0
2018-Feb-21 15:28N 55°19' E 014°24'613.1
2018-Feb-21 14:59N 55°24' E 014°31'1112.9
2018-Feb-21 14:07N 55°31' E 014°47'613.0
2018-Feb-21 13:39N 55°34' E 014°56'312.9
2018-Feb-21 13:26N 55°35' E 015°00'612.9
2018-Feb-21 13:00N 55°38' E 015°09'613.0
2018-Feb-21 12:30N 55°42' E 015°19'713.0
2018-Feb-21 12:00N 55°45' E 015°28'612.9
2018-Feb-21 11:30N 55°48' E 015°39'713.1
2018-Feb-21 10:59N 55°51' E 015°49'613.1
2018-Feb-21 10:30N 55°54' E 015°59'713.1
2018-Feb-21 10:00N 55°58' E 016°09'713.1
2018-Feb-21 09:30N 56°01' E 016°20'713.2
2018-Feb-21 09:00N 56°04' E 016°30'713.2
2018-Feb-21 08:30N 56°08' E 016°39'612.6
2018-Feb-21 08:00N 56°13' E 016°46'713.3
2018-Feb-21 07:30N 56°19' E 016°50'713.3
2018-Feb-21 07:00N 56°26' E 016°53'20 0.4
2018-Feb-19 08:59N 56°06' E 016°49'714.5
2018-Feb-19 08:30N 56°02' E 016°38'714.6
2018-Feb-19 08:00N 55°58' E 016°28'714.5
2018-Feb-19 07:30N 55°54' E 016°17'714.5
2018-Feb-19 07:00N 55°51' E 016°05'714.6
2018-Feb-19 06:30N 55°47' E 015°54'714.6
2018-Feb-19 06:00N 55°44' E 015°42'714.8
2018-Feb-19 05:30N 55°40' E 015°31'714.8
2018-Feb-19 05:00N 55°37' E 015°19'714.8
2018-Feb-19 04:30N 55°33' E 015°08'714.7
2018-Feb-19 04:00N 55°29' E 014°57'814.6
2018-Feb-19 03:30N 55°26' E 014°45'714.3
2018-Feb-19 03:00N 55°21' E 014°35'714.6
2018-Feb-19 02:30N 55°15' E 014°28'714.7
2018-Feb-19 02:00N 55°09' E 014°20'714.8
2018-Feb-19 01:30N 55°04' E 014°11'714.5
2018-Feb-19 01:00N 55°01' E 013°60'5414.5
2018-Feb-18 21:16N 54°40' E 012°33'714.4
2018-Feb-18 20:46N 54°36' E 012°22'414.3
2018-Feb-18 20:30N 54°34' E 012°18'714.5
2018-Feb-18 20:00N 54°27' E 012°14'2813.2
2018-Feb-18 17:52N 54°30' E 011°25'514.1
2018-Feb-18 17:30N 54°33' E 011°18'713.5
2018-Feb-18 17:00N 54°35' E 011°07'714.3
2018-Feb-18 16:30N 54°34' E 010°54'714.2
2018-Feb-18 16:00N 54°34' E 010°42'714.0
2018-Feb-18 15:29N 54°32' E 010°30'24 2.2
2018-Feb-18 04:45N 54°21' E 009°54'2 6.9
2018-Feb-18 04:30N 54°22' E 009°51'4 7.6
2018-Feb-18 04:00N 54°20' E 009°45'4 7.6
2018-Feb-18 03:30N 54°18' E 009°41'4 7.4
2018-Feb-18 03:00N 54°15' E 009°37'4 7.8
2018-Feb-18 02:30N 54°12' E 009°32'4 8.3
2018-Feb-18 02:00N 54°10' E 009°26'3 5.9
2018-Feb-18 01:30N 54°09' E 009°21'3 5.2
2018-Feb-18 01:00N 54°06' E 009°20'3 7.0
2018-Feb-18 00:30N 54°03' E 009°18'3 5.6
2018-Feb-18 00:00N 54°00' E 009°18'4 8.2
2018-Feb-17 23:30N 53°57' E 009°14'4 7.5
2018-Feb-17 23:00N 53°54' E 009°09'1 1.2
2018-Feb-17 22:30N 53°54' E 009°09'0 1.0
2018-Feb-17 22:00N 53°53' E 009°08'2 3.3
2018-Feb-17 21:30N 53°53' E 009°05'3 5.6
2018-Feb-17 21:00N 53°51' E 009°01'611.2
2018-Feb-17 20:30N 53°50' E 008°52'510.6
2018-Feb-17 20:00N 53°52' E 008°44'510.4
2018-Feb-17 19:30N 53°57' E 008°39'611.7
2018-Feb-17 19:01N 53°58' E 008°29'611.6
2018-Feb-17 18:30N 53°59' E 008°20'713.9
2018-Feb-17 17:59N 53°59' E 008°07'10913.9
2018-Feb-17 10:09N 53°30' E 005°09'215.5
2018-Feb-17 10:01N 53°29' E 005°06'815.6
2018-Feb-17 09:30N 53°27' E 004°54'815.2
2018-Feb-17 08:59N 53°23' E 004°42'815.2
2018-Feb-17 08:29N 53°16' E 004°36'816.1
2018-Feb-17 08:00N 53°09' E 004°30'816.0
2018-Feb-17 07:30N 53°02' E 004°23'815.5
2018-Feb-17 07:00N 52°56' E 004°17'815.5
2018-Feb-17 06:30N 52°49' E 004°11'815.7
2018-Feb-17 06:00N 52°43' E 004°03'815.4
2018-Feb-17 05:28N 52°37' E 003°53'715.4
2018-Feb-17 05:00N 52°32' E 003°44'815.6
2018-Feb-17 04:30N 52°26' E 003°35'816.0
2018-Feb-17 04:00N 52°19' E 003°31'816.2
2018-Feb-17 03:29N 52°11' E 003°27'816.1
2018-Feb-17 03:00N 52°03' E 003°24'816.1
2018-Feb-17 02:30N 51°55' E 003°23'816.0
2018-Feb-17 02:00N 51°48' E 003°18'714.6
2018-Feb-17 01:30N 51°40' E 003°19'714.0
2018-Feb-17 01:00N 51°34' E 003°25'713.2
2018-Feb-17 00:30N 51°29' E 003°30'510.0
2018-Feb-17 00:00N 51°26' E 003°37'5 9.6
2018-Feb-16 23:30N 51°23' E 003°43'612.7
2018-Feb-16 23:00N 51°21' E 003°53'612.7
2018-Feb-16 22:30N 51°26' E 003°59'611.8
2018-Feb-16 22:00N 51°22' E 004°06'510.6
2018-Feb-16 21:30N 51°21' E 004°14'611.1
2018-Feb-16 21:00N 51°17' E 004°20'0 0.3
2018-Feb-16 20:30N 51°17' E 004°20'0 0.0
2018-Feb-16 20:01N 51°17' E 004°20'1 1.7
2018-Feb-16 19:30N 51°16' E 004°21'1 2.5
2018-Feb-16 19:00N 51°15' E 004°22'0 0.0
2018-Feb-16 18:30N 51°15' E 004°22'0 0.0
2018-Feb-16 18:00N 51°15' E 004°22'0 0.0
2018-Feb-16 17:30N 51°15' E 004°22'0 0.0
2018-Feb-16 17:00N 51°15' E 004°22'0 0.0
2018-Feb-16 16:30N 51°15' E 004°22'0 0.0
2018-Feb-16 16:00N 51°15' E 004°22'0 0.0
2018-Feb-16 15:30N 51°15' E 004°22'0 0.0
2018-Feb-16 15:00N 51°15' E 004°22'0 0.0
2018-Feb-16 14:30N 51°15' E 004°22'0 0.0
2018-Feb-16 14:00N 51°15' E 004°22'0 0.0
2018-Feb-16 13:30N 51°15' E 004°22'0 0.0
2018-Feb-16 13:00N 51°15' E 004°22'0 0.0
2018-Feb-16 12:29N 51°15' E 004°22'0 0.0
2018-Feb-16 12:00N 51°15' E 004°22'0 0.0
2018-Feb-16 11:29N 51°15' E 004°22'0 0.0
2018-Feb-16 10:59N 51°15' E 004°22'0 0.0
2018-Feb-16 10:30N 51°15' E 004°22'0 0.0
2018-Feb-16 10:00N 51°15' E 004°22'0 0.0
2018-Feb-16 09:29N 51°15' E 004°22'0 0.0
2018-Feb-16 08:56N 51°15' E 004°22'0 0.0
2018-Feb-16 08:26N 51°15' E 004°22'0 0.0
2018-Feb-16 07:59N 51°15' E 004°22'0 0.0
2018-Feb-16 07:29N 51°15' E 004°22'0 0.0
2018-Feb-16 06:59N 51°15' E 004°22'0 0.0
2018-Feb-16 06:29N 51°15' E 004°22'0 0.0
2018-Feb-16 05:59N 51°15' E 004°22'0 0.0
2018-Feb-16 05:29N 51°15' E 004°22'0 0.0
2018-Feb-16 04:59N 51°15' E 004°22'0 0.0
2018-Feb-16 04:29N 51°15' E 004°22'0 0.0
2018-Feb-16 03:56N 51°15' E 004°22'0 0.0
2018-Feb-16 03:29N 51°15' E 004°22'0 0.0
2018-Feb-16 02:59N 51°15' E 004°22'0 0.0
2018-Feb-16 02:29N 51°15' E 004°22'0 0.0
2018-Feb-16 01:59N 51°15' E 004°22'0 0.0
2018-Feb-16 01:29N 51°15' E 004°22'0 0.0
2018-Feb-16 00:59N 51°15' E 004°22'0 0.0
2018-Feb-16 00:26N 51°15' E 004°22'0 0.0
2018-Feb-15 23:59N 51°15' E 004°22'0 0.0
2018-Feb-15 23:26N 51°15' E 004°22'0 0.0
2018-Feb-15 22:59N 51°15' E 004°22'0 0.0
2018-Feb-15 22:29N 51°15' E 004°22'0 0.0
2018-Feb-15 21:59N 51°15' E 004°22'0 0.0
2018-Feb-15 21:29N 51°15' E 004°22'0 0.0
2018-Feb-15 20:59N 51°15' E 004°22'0 0.0
2018-Feb-15 20:29N 51°15' E 004°22'0 0.0
2018-Feb-15 19:59N 51°15' E 004°22'0 0.0
2018-Feb-15 19:29N 51°15' E 004°22'0 0.0
2018-Feb-15 18:59N 51°15' E 004°22'0 0.0
2018-Feb-15 18:29N 51°15' E 004°22'0 0.0
2018-Feb-15 17:59N 51°15' E 004°22'0 0.0
2018-Feb-15 17:29N 51°15' E 004°22'2 4.2
2018-Feb-15 17:01N 51°17' E 004°21'4 7.7
2018-Feb-15 16:30N 51°20' E 004°18'1 1.3
2018-Feb-15 16:00N 51°21' E 004°17'0 0.3
2018-Feb-15 15:30N 51°21' E 004°17'1 2.6
2018-Feb-15 15:00N 51°21' E 004°15'2 4.3
2018-Feb-15 14:30N 51°23' E 004°13'4 7.6
2018-Feb-15 14:01N 51°22' E 004°07'510.1
2018-Feb-15 13:31N 51°26' E 004°01'612.0
2018-Feb-15 13:01N 51°22' E 003°54'612.7
2018-Feb-15 12:31N 51°22' E 003°44'611.2
2018-Feb-15 12:00N 51°26' E 003°37'611.3
2018-Feb-15 11:29N 51°29' E 003°29'611.4
2018-Feb-15 11:00N 51°34' E 003°25'712.5
2018-Feb-15 10:27N 51°40' E 003°19'511.2
2018-Feb-15 10:00N 51°44' E 003°15'148 4.6
2018-Feb-14 01:59N 53°42' E 005°44'9212.7
2018-Feb-13 18:46N 54°00' E 008°16'912.4
2018-Feb-13 18:01N 53°58' E 008°32'013.3
2018-Feb-13 18:00N 53°58' E 008°32'714.0
2018-Feb-13 17:30N 53°54' E 008°42'714.6
2018-Feb-13 17:00N 53°51' E 008°52'815.9
2018-Feb-13 16:30N 53°53' E 009°05'713.5
2018-Feb-13 16:00N 53°52' E 009°17'815.0
2018-Feb-13 15:30N 53°46' E 009°24'714.1
2018-Feb-13 15:01N 53°40' E 009°31'713.1
2018-Feb-13 14:31N 53°35' E 009°37'  

Dump ship's entire track history